Aviation Digital Data Service (ADDS)

Output produced by METARs form (1812 UTC 14 August 2018)
found at http://www.aviationweather.gov/adds/metars/
 
LOWG 141750Z 21003KT 9999 FEW012 BKN150 20/18 Q1014 NOSIG
TAF LOWG 141715Z 1418/1518 VRB02KT 9999 FEW025 SCT050 BKN110 TX26/1512Z TN15/1503Z 
     PROB30 
     TEMPO 1418/1420 FEW030CB SCT050 BKN110 
     PROB40 1500/1505 0800 BCFG NSC 
     BECMG 1507/1509 35006KT FEW050 SCT090
       
LOWI 141750Z 10003KT 050V140 9999 FEW040 SCT060 BKN080 19/15 Q1018 NOSIG
TAF LOWI 141715Z 1418/1518 VRB02KT 9999 SCT050 SCT070 TX26/1514Z TN15/1503Z 
     TEMPO 1418/1508 27007KT -SHRA SCT030TCU BKN050 
     BECMG 1510/1512 09006KT SCT070 SCT120
       
LOWK 141750Z AUTO VRB01KT 9999 RA //////CB FEW034 SCT046 BKN080 18/16 Q1016 TEMPO -SHRA
TAF LOWK 141715Z 1418/1518 VRB02KT 9999 SCT040 BKN100 TX26/1515Z TN16/1504Z 
     TEMPO 1418/1422 35010KT SHRA SCT040 FEW050CB BKN060 
     PROB30 
     TEMPO 1418/1421 TSRA 
     BECMG 1508/1511 35005KT FEW040 SCT100 
     TEMPO 1513/1517 03010KT FEW050TCU SCT060
       
LOWL 141750Z AUTO 23010KT 9999 FEW080 22/14 Q1015 NOSIG
TAF LOWL 141715Z 1418/1518 25005KT 9999 FEW050 SCT090 TX27/1515Z TN15/1504Z 
     TEMPO 1508/1516 28010KT SCT060
       
LOWS 141750Z 24004KT 9999 FEW045 BKN075 BKN300 21/14 Q1017 NOSIG
TAF LOWS 141715Z 1418/1518 15005KT 9999 SCT060 BKN090 TX24/1515Z TN16/1504Z 
     TEMPO 1500/1508 -SHRA BKN060 
     BECMG 1507/1509 29006KT 
     TEMPO 1512/1518 -SHRA SCT040 BKN060
       
LOWW 141750Z 28010KT CAVOK 24/16 Q1013 NOSIG
TAF LOWW 141715Z 1418/1524 30010KT CAVOK TX29/1514Z TN18/1523Z 
     TEMPO 1508/1516 34015KT
       
TAF LOXT 141115Z 1412/1421 24012KT 9999 FEW040 SCT100 BKN270 
     TEMPO 1412/1416 SHRA FEW035TCU BKN040
       
LOAV 141700Z 28009KT 30KM FEW030CU SCT060SC BKN120AC 24/14
TAF LOAV 141125Z 1412/1421 28008KT 9999 FEW050 BKN070 
     TEMPO 1412/1417 31015G25KT SHRA BKN040 SCT050TCU
       
LOAN 141700Z 27004KT 40KM FEW045CU SCT080AC BKN170AC
TAF AMD LOAN 141516Z 1415/1421 25008KT 9999 FEW050 BKN070 
     PROB40 
     TEMPO 1415/1418 31015G25KT SHRA BKN040 SCT050TCU
       
TAF LOXN 141115Z 1412/1421 29008KT 9999 FEW040 BKN080 
     TEMPO 1412/1416 -SHRA FEW035TCU BKN040
       
LOXZ 141750Z VRB01KT 20KM FEW040SC SCT060SC BKN250CI 19/15 Q1016 NOSIG
TAF LOXZ 141415Z 1415/1424 VRB03KT 9999 SCT070 SCT090 
     TEMPO 1414/1415 VRB05KT -SHRA FEW010 BKN060